Time;durP1;ratioP1;P1;durP2;ratioP2;P2;SDS_P1;SDS_P2;PMS_P1;PMS_P2;Temp;Humidity;BMP_temperature;BMP_pressure;BME280_temperature;BME280_humidity;BME280_pressure;Samples;Min_cycle;Max_cycle;Signal;HPM_P1;HPM_P2
2022/04/11 00:01:15;;;;;;;33.20;30.77;;;;;;;5.66;100.00;100699.22;5084500;28;20049;-79
2022/04/11 00:03:42;;;;;;;34.90;31.95;;;;;;;5.71;100.00;100696.84;5082816;28;20363;-78
2022/04/11 00:06:09;;;;;;;34.33;31.60;;;;;;;5.65;100.00;100696.75;5085429;28;20098;-79
2022/04/11 00:08:35;;;;;;;35.35;32.42;;;;;;;5.80;100.00;100697.63;5090591;28;20485;-80
2022/04/11 00:11:02;;;;;;;33.70;31.20;;;;;;;5.69;100.00;100701.50;5088181;28;20056;-78
2022/04/11 00:13:29;;;;;;;32.80;29.95;;;;;;;5.74;100.00;100711.50;5086769;28;20465;-80
2022/04/11 00:15:57;;;;;;;35.92;33.03;;;;;;;5.81;100.00;100723.00;5083191;28;20044;-78
2022/04/11 00:18:24;;;;;;;33.45;30.65;;;;;;;5.80;100.00;100731.06;5082490;28;20129;-78
2022/04/11 00:20:50;;;;;;;34.70;31.40;;;;;;;5.76;100.00;100725.34;5080473;28;20110;-79
2022/04/11 00:23:18;;;;;;;35.72;32.78;;;;;;;5.94;100.00;100731.19;5083495;28;20101;-79
2022/04/11 00:25:44;;;;;;;36.75;33.50;;;;;;;5.71;100.00;100730.31;5084622;28;20415;-78
2022/04/11 00:28:11;;;;;;;33.83;30.77;;;;;;;5.59;100.00;100732.50;5081309;28;20527;-78
2022/04/11 00:30:38;;;;;;;34.85;31.85;;;;;;;5.37;100.00;100741.19;5088874;28;20101;-79
2022/04/11 00:33:06;;;;;;;35.05;32.13;;;;;;;5.56;100.00;100745.22;5086235;28;20048;-80
2022/04/11 00:35:33;;;;;;;34.58;31.48;;;;;;;5.54;100.00;100765.63;5078934;28;20048;-80
2022/04/11 00:38:00;;;;;;;33.90;31.23;;;;;;;5.41;100.00;100774.09;5083800;28;20524;-80
2022/04/11 00:40:27;;;;;;;36.75;33.83;;;;;;;5.37;100.00;100778.88;5079160;28;20051;-78
2022/04/11 00:42:54;;;;;;;33.08;30.27;;;;;;;5.43;100.00;100794.00;5082124;28;20108;-80
2022/04/11 00:45:20;;;;;;;33.63;30.70;;;;;;;5.51;100.00;100790.53;5090668;28;20102;-79
2022/04/11 00:47:47;;;;;;;32.28;29.88;;;;;;;5.59;100.00;100794.94;5087378;28;20089;-79
2022/04/11 00:50:16;;;;;;;34.13;31.42;;;;;;;5.60;100.00;100799.19;5081847;28;20386;-78
2022/04/11 00:52:45;;;;;;;32.70;29.90;;;;;;;5.40;100.00;100804.06;5086108;28;20051;-78
2022/04/11 00:55:14;;;;;;;34.03;31.25;;;;;;;5.71;100.00;100815.44;5083408;28;20090;-79
2022/04/11 00:57:40;;;;;;;36.35;33.35;;;;;;;5.64;100.00;100813.69;5087368;28;20105;-79
2022/04/11 01:00:09;;;;;;;31.52;29.02;;;;;;;5.40;100.00;100823.31;5078141;28;20044;-78
2022/04/11 01:02:36;;;;;;;32.50;29.58;;;;;;;5.25;100.00;100817.09;5084066;28;21801;-79
2022/04/11 01:05:07;;;;;;;33.30;30.58;;;;;;;5.14;100.00;100818.25;5084541;28;20106;-78
2022/04/11 01:07:36;;;;;;;36.78;33.28;;;;;;;5.49;100.00;100813.56;5084762;28;20583;-80
2022/04/11 01:10:03;;;;;;;36.42;32.85;;;;;;;5.41;100.00;100816.22;5092317;28;20122;-78
2022/04/11 01:12:31;;;;;;;35.00;31.80;;;;;;;5.30;100.00;100822.69;5081259;28;20105;-79
2022/04/11 01:14:57;;;;;;;33.97;30.90;;;;;;;5.43;100.00;100822.97;5082298;28;20040;-78
2022/04/11 01:17:33;;;;;;;38.05;34.70;;;;;;;5.42;100.00;100831.06;5077412;28;20049;-81
2022/04/11 01:20:00;;;;;;;31.60;28.80;;;;;;;5.24;100.00;100833.91;5081417;28;20596;-78
2022/04/11 01:22:28;;;;;;;32.35;29.35;;;;;;;5.48;100.00;100841.75;5082618;28;20561;-79
2022/04/11 01:24:55;;;;;;;30.08;27.48;;;;;;;5.18;100.00;100839.84;5083768;28;20048;-78
2022/04/11 01:27:23;;;;;;;31.00;28.30;;;;;;;5.36;100.00;100844.91;5081895;28;20496;-80
2022/04/11 01:29:50;;;;;;;31.25;28.45;;;;;;;5.48;100.00;100852.28;5077799;28;20496;-79
2022/04/11 01:32:17;;;;;;;32.45;29.52;;;;;;;5.27;100.00;100852.81;5082644;28;20044;-78
2022/04/11 01:34:43;;;;;;;31.38;28.77;;;;;;;5.14;100.00;100856.94;5080211;28;20056;-79
2022/04/11 01:37:11;;;;;;;31.58;28.98;;;;;;;5.16;100.00;100850.53;5073246;28;20037;-78
2022/04/11 01:39:39;;;;;;;32.30;29.20;;;;;;;5.14;100.00;100859.56;5082395;28;20040;-78
2022/04/11 01:42:06;;;;;;;30.58;28.08;;;;;;;5.22;100.00;100862.22;5078972;28;20388;-78
2022/04/11 01:44:33;;;;;;;29.52;27.08;;;;;;;5.20;100.00;100870.25;5086277;28;20169;-77
2022/04/11 01:47:00;;;;;;;29.67;27.10;;;;;;;5.13;100.00;100865.84;5081180;28;20048;-79
2022/04/11 01:49:27;;;;;;;28.23;26.15;;;;;;;5.13;100.00;100871.94;5082443;28;20045;-78
2022/04/11 01:51:54;;;;;;;31.83;29.25;;;;;;;5.32;100.00;100869.91;5083733;28;20500;-79
2022/04/11 01:54:20;;;;;;;30.77;28.48;;;;;;;5.40;100.00;100870.72;5083051;28;20041;-79
2022/04/11 01:56:49;;;;;;;28.75;26.45;;;;;;;5.36;100.00;100873.88;5081771;28;20056;-78
2022/04/11 01:59:16;;;;;;;32.25;29.75;;;;;;;5.39;100.00;100879.63;5082438;28;20051;-79
2022/04/11 02:01:43;;;;;;;30.25;27.77;;;;;;;5.21;100.00;100882.47;5080235;28;20135;-78
2022/04/11 02:04:10;;;;;;;29.77;27.35;;;;;;;5.30;100.00;100883.28;5082847;28;20052;-79
2022/04/11 02:06:37;;;;;;;33.08;30.58;;;;;;;5.36;100.00;100882.59;5078039;28;20052;-79
2022/04/11 02:09:04;;;;;;;28.60;26.40;;;;;;;5.40;100.00;100888.34;5083050;28;20573;-80
2022/04/11 02:11:31;;;;;;;28.70;26.50;;;;;;;5.41;100.00;100896.06;5077990;28;20044;-79
2022/04/11 02:13:59;;;;;;;27.88;25.75;;;;;;;5.47;100.00;100894.59;5078176;28;20545;-78
2022/04/11 02:16:25;;;;;;;33.70;31.00;;;;;;;5.49;100.00;100898.69;5083179;28;20048;-79
2022/04/11 02:18:52;;;;;;;29.23;26.92;;;;;;;5.70;100.00;100894.69;5079944;28;20052;-79
2022/04/11 02:21:19;;;;;;;27.75;25.55;;;;;;;5.86;100.00;100905.19;5078475;28;20397;-78
2022/04/11 02:23:46;;;;;;;32.30;30.00;;;;;;;6.30;100.00;100901.25;5078544;28;20052;-78
2022/04/11 02:26:13;;;;;;;28.50;26.58;;;;;;;5.54;100.00;100905.25;5082906;28;20128;-79
2022/04/11 02:28:40;;;;;;;30.15;27.85;;;;;;;7.16;100.00;100912.50;5079197;28;20540;-78
2022/04/11 02:31:08;;;;;;;31.88;29.58;;;;;;;5.66;100.00;100906.59;5074190;28;20047;-77
2022/04/11 02:33:35;;;;;;;38.72;34.97;;;;;;;6.13;100.00;100903.13;5077701;28;20097;-78
2022/04/11 02:36:01;;;;;;;37.47;33.97;;;;;;;8.31;100.00;100907.59;5086078;28;20048;-78
2022/04/11 02:38:28;;;;;;;51.05;46.25;;;;;;;6.87;100.00;100901.69;5088063;28;20044;-77
2022/04/11 02:40:55;;;;;;;47.67;42.97;;;;;;;6.46;100.00;100900.31;5091195;28;20047;-79
2022/04/11 02:43:21;;;;;;;45.28;40.58;;;;;;;7.17;100.00;100904.41;5084688;28;20109;-78
2022/04/11 02:45:48;;;;;;;43.38;39.75;;;;;;;5.55;100.00;100901.66;5083356;28;20052;-79
2022/04/11 02:48:17;;;;;;;52.22;48.38;;;;;;;7.18;100.00;100894.66;5088006;28;20106;-78
2022/04/11 02:50:43;;;;;;;49.47;45.08;;;;;;;7.90;100.00;100902.00;5087123;28;20056;-78
2022/04/11 02:53:10;;;;;;;49.08;44.80;;;;;;;6.92;100.00;100900.31;5091010;28;20048;-78
2022/04/11 02:55:37;;;;;;;54.53;49.72;;;;;;;6.45;100.00;100904.78;5088724;28;20048;-78
2022/04/11 02:58:04;;;;;;;63.53;58.60;;;;;;;7.72;100.00;100918.25;5089333;28;20040;-80
2022/04/11 03:00:31;;;;;;;56.92;52.30;;;;;;;5.87;100.00;100911.28;5090206;28;20060;-77
2022/04/11 03:02:57;;;;;;;59.08;54.28;;;;;;;6.82;100.00;100922.50;5086353;28;20045;-79
2022/04/11 03:05:25;;;;;;;56.65;51.72;;;;;;;7.02;100.00;100919.38;5083528;28;20045;-79
2022/04/11 03:07:52;;;;;;;55.85;51.10;;;;;;;5.78;100.00;100918.41;5091094;28;20052;-79
2022/04/11 03:10:20;;;;;;;51.20;46.50;;;;;;;6.21;100.00;100928.66;5084483;28;20087;-79
2022/04/11 03:12:46;;;;;;;60.20;55.00;;;;;;;6.24;100.00;100930.94;5092862;28;20135;-79
2022/04/11 03:15:14;;;;;;;65.78;60.80;;;;;;;7.15;100.00;100929.38;5086640;28;20048;-79
2022/04/11 03:17:40;;;;;;;54.22;49.95;;;;;;;7.09;100.00;100929.06;5092903;28;20044;-79
2022/04/11 03:20:08;;;;;;;53.03;48.95;;;;;;;5.60;100.00;100931.78;5087044;28;20051;-78
2022/04/11 03:22:36;;;;;;;60.30;55.90;;;;;;;5.43;100.00;100941.53;5092854;28;20533;-78
2022/04/11 03:25:04;;;;;;;48.22;44.33;;;;;;;5.51;100.00;100944.16;5088173;28;20044;-80
2022/04/11 03:27:31;;;;;;;45.17;41.40;;;;;;;5.03;100.00;100947.63;5088638;28;20068;-78
2022/04/11 03:29:57;;;;;;;54.10;49.30;;;;;;;5.20;100.00;100953.72;5082961;28;20052;-78
2022/04/11 03:32:24;;;;;;;51.22;46.63;;;;;;;4.89;100.00;100957.00;5083288;28;20496;-79
2022/04/11 03:34:51;;;;;;;52.78;48.10;;;;;;;6.33;100.00;100964.22;5080505;28;20052;-79
2022/04/11 03:37:18;;;;;;;55.08;50.28;;;;;;;5.83;100.00;100965.34;5084181;28;20464;-78
2022/04/11 03:39:46;;;;;;;52.50;48.20;;;;;;;5.96;100.00;100973.56;5091936;28;20105;-78
2022/04/11 03:42:13;;;;;;;49.05;44.95;;;;;;;4.92;100.00;100976.91;5083503;28;20108;-79
2022/04/11 03:44:42;;;;;;;41.80;38.00;;;;;;;5.19;100.00;100981.03;5084172;28;20044;-79
2022/04/11 03:47:09;;;;;;;44.95;41.25;;;;;;;5.52;100.00;100989.75;5085947;28;20426;-77
2022/04/11 03:49:35;;;;;;;48.60;44.78;;;;;;;6.43;100.00;100989.38;5087162;28;20135;-80
2022/04/11 03:52:02;;;;;;;47.08;43.45;;;;;;;5.33;100.00;100998.00;5090807;28;20051;-79
2022/04/11 03:54:29;;;;;;;51.17;47.53;;;;;;;5.68;100.00;101004.72;5084408;28;20515;-80
2022/04/11 03:56:57;;;;;;;44.97;40.88;;;;;;;5.09;100.00;101012.00;5084377;28;20052;-78
2022/04/11 03:59:24;;;;;;;50.55;45.45;;;;;;;5.02;100.00;101004.75;5087120;28;20103;-79
2022/04/11 04:01:51;;;;;;;26.55;24.85;;;;;;;4.73;100.00;101005.16;5078452;28;20531;-79
2022/04/11 04:04:17;;;;;;;28.00;26.38;;;;;;;4.82;100.00;101009.47;5083168;28;20040;-80
2022/04/11 04:06:44;;;;;;;24.52;23.00;;;;;;;4.90;100.00;101013.09;5085342;28;20105;-78
2022/04/11 04:09:11;;;;;;;24.20;22.65;;;;;;;4.71;100.00;101014.19;5083760;28;20036;-81
2022/04/11 04:11:38;;;;;;;24.95;23.35;;;;;;;4.80;100.00;101011.41;5086765;28;20044;-79
2022/04/11 04:14:06;;;;;;;23.55;22.15;;;;;;;4.58;100.00;101014.66;5084807;28;20486;-79
2022/04/11 04:16:33;;;;;;;25.15;23.58;;;;;;;4.57;100.00;101016.47;5085622;28;20052;-78
2022/04/11 04:19:00;;;;;;;24.30;22.80;;;;;;;4.64;100.00;101013.19;5086560;28;20423;-79
2022/04/11 04:21:26;;;;;;;22.95;21.55;;;;;;;5.10;100.00;101014.44;5087084;28;20048;-78
2022/04/11 04:23:53;;;;;;;24.20;22.80;;;;;;;5.28;100.00;101032.72;5088731;28;20044;-78
2022/04/11 04:26:20;;;;;;;28.50;26.60;;;;;;;5.02;100.00;101023.16;5084520;28;20109;-79
2022/04/11 04:28:46;;;;;;;27.38;25.63;;;;;;;4.75;100.00;101028.66;5083459;28;20484;-78
2022/04/11 04:31:15;;;;;;;26.15;24.55;;;;;;;5.05;100.00;101035.16;5082657;28;20044;-79
2022/04/11 04:33:41;;;;;;;25.63;24.13;;;;;;;5.66;100.00;101036.53;5083114;28;20119;-77
2022/04/11 04:36:08;;;;;;;26.55;24.75;;;;;;;5.07;100.00;101046.38;5089589;28;20044;-77
2022/04/11 04:38:35;;;;;;;25.27;23.77;;;;;;;4.88;100.00;101038.75;5090327;28;20052;-77
2022/04/11 04:41:02;;;;;;;26.85;25.25;;;;;;;5.59;100.00;101050.53;5080570;28;20129;-79
2022/04/11 04:43:28;;;;;;;27.35;25.70;;;;;;;6.49;100.00;101048.56;5086424;28;20477;-78
2022/04/11 04:45:55;;;;;;;23.63;22.23;;;;;;;5.86;100.00;101044.91;5084771;28;20794;-78
2022/04/11 04:48:23;;;;;;;25.83;24.23;;;;;;;5.72;100.00;101061.41;5086008;28;20466;-79
2022/04/11 04:50:50;;;;;;;28.73;27.08;;;;;;;7.53;100.00;101065.81;5083524;28;20085;-81
2022/04/11 04:53:17;;;;;;;31.48;29.77;;;;;;;6.68;100.00;101063.16;5089126;28;20492;-78
2022/04/11 04:55:44;;;;;;;31.33;29.42;;;;;;;6.48;100.00;101059.31;5084869;28;20586;-80
2022/04/11 04:58:11;;;;;;;27.55;26.08;;;;;;;5.51;100.00;101078.53;5084577;28;20474;-79
2022/04/11 05:00:37;;;;;;;30.52;28.83;;;;;;;6.58;100.00;101075.75;5081571;28;20567;-79
2022/04/11 05:03:04;;;;;;;28.08;26.58;;;;;;;6.05;100.00;101082.47;5083650;28;20056;-78
2022/04/11 05:05:33;;;;;;;29.52;28.00;;;;;;;7.08;100.00;101085.06;5078621;28;20052;-79
2022/04/11 05:07:59;;;;;;;28.23;26.63;;;;;;;6.76;100.00;101086.91;5089692;28;20113;-78
2022/04/11 05:10:26;;;;;;;26.13;24.73;;;;;;;5.94;100.00;101096.84;5082821;28;20588;-80
2022/04/11 05:12:53;;;;;;;26.30;24.90;;;;;;;6.35;100.00;101092.31;5085700;28;20048;-79
2022/04/11 05:15:19;;;;;;;27.77;26.42;;;;;;;7.52;100.00;101090.56;5081852;28;20482;-79
2022/04/11 05:17:46;;;;;;;28.42;27.02;;;;;;;8.11;100.00;101095.22;5080104;28;20105;-79
2022/04/11 05:20:13;;;;;;;28.15;26.75;;;;;;;7.49;100.00;101090.94;5086399;28;20048;-79
2022/04/11 05:22:41;;;;;;;30.17;28.65;;;;;;;6.91;100.00;101084.34;5082638;28;20480;-79
2022/04/11 05:25:09;;;;;;;29.92;28.42;;;;;;;7.55;100.00;101087.56;5081680;28;20101;-78
2022/04/11 05:27:36;;;;;;;27.15;25.73;;;;;;;7.67;100.00;101095.91;5086234;28;20060;-78
2022/04/11 05:30:05;;;;;;;28.52;27.13;;;;;;;7.02;100.00;101089.25;5081349;28;20045;-78
2022/04/11 05:32:32;;;;;;;28.63;27.23;;;;;;;7.10;100.00;101091.84;5083458;28;20138;-79
2022/04/11 05:34:59;;;;;;;25.70;24.50;;;;;;;6.63;100.00;101097.19;5082279;28;20048;-78
2022/04/11 05:40:11;;;;;;;26.67;25.38;;;;;;;6.91;100.00;101091.47;5065891;28;20044;-79
2022/04/11 05:42:38;;;;;;;26.30;25.00;;;;;;;7.72;100.00;101100.69;5086185;28;20496;-79
2022/04/11 05:45:20;;;;;;;27.15;25.85;;;;;;;7.10;100.00;101102.41;5083804;28;20093;-78
2022/04/11 05:47:46;;;;;;;25.57;24.43;;;;;;;6.83;100.00;101095.75;5084869;28;20057;-80
2022/04/11 05:50:13;;;;;;;27.77;26.38;;;;;;;6.19;100.00;101110.81;5086420;28;20101;-78
2022/04/11 05:52:40;;;;;;;26.10;24.80;;;;;;;7.17;100.00;101101.69;5083805;28;20051;-79
2022/04/11 05:55:09;;;;;;;25.20;24.00;;;;;;;7.28;100.00;101107.41;5003172;28;20052;-78
2022/04/11 05:57:35;;;;;;;26.75;25.45;;;;;;;7.10;100.00;101104.22;5087066;28;20048;-79
2022/04/11 06:00:02;;;;;;;26.40;25.10;;;;;;;7.50;100.00;101108.44;5089443;28;20048;-79
2022/04/11 06:02:29;;;;;;;28.08;26.58;;;;;;;7.58;100.00;101111.00;5082588;28;20111;-78
2022/04/11 06:04:56;;;;;;;27.52;26.30;;;;;;;6.85;100.00;101114.91;5084984;28;20048;-78
2022/04/11 06:07:53;;;;;;;30.13;28.63;;;;;;;6.65;100.00;101122.41;5089747;28;20051;-78
2022/04/11 06:11:16;;;;;;;28.70;27.30;;;;;;;6.92;100.00;101130.06;5083735;28;20098;-79
2022/04/11 06:13:46;;;;;;;30.88;29.38;;;;;;;6.57;100.00;101125.09;5083265;28;20483;-80
2022/04/11 06:16:12;;;;;;;27.27;25.98;;;;;;;5.90;100.00;101124.47;5079669;28;20082;-77
2022/04/11 06:18:39;;;;;;;29.25;27.95;;;;;;;7.65;100.00;101116.41;5085698;28;20075;-78
2022/04/11 06:21:06;;;;;;;29.77;28.38;;;;;;;7.48;100.00;101113.06;5082559;28;20105;-78
2022/04/11 06:23:33;;;;;;;29.42;28.02;;;;;;;8.81;100.00;101111.69;5086401;28;20040;-79
2022/04/11 06:26:00;;;;;;;29.70;28.17;;;;;;;7.40;100.00;101128.97;5088921;28;20044;-79
2022/04/11 06:28:27;;;;;;;32.88;30.52;;;;;;;7.43;100.00;101123.34;5087259;28;20203;-77
2022/04/11 06:30:56;;;;;;;27.42;25.73;;;;;;;9.05;100.00;101132.56;5082413;28;20117;-79
2022/04/11 06:33:22;;;;;;;32.03;29.98;;;;;;;7.82;100.00;101132.97;5088291;28;20040;-78
2022/04/11 06:35:49;;;;;;;30.50;29.00;;;;;;;7.46;100.00;101128.28;5082002;28;20676;-79
2022/04/11 06:38:16;;;;;;;29.10;27.60;;;;;;;8.11;100.00;101132.25;5072199;28;20045;-78
2022/04/11 06:40:44;;;;;;;30.08;28.58;;;;;;;7.15;100.00;101133.59;5081719;28;20052;-78
2022/04/11 06:43:10;;;;;;;32.65;31.08;;;;;;;8.23;100.00;101132.66;5080037;28;20060;-78
2022/04/11 06:45:37;;;;;;;27.75;26.25;;;;;;;7.08;100.00;101122.91;5082557;28;20487;-78
2022/04/11 06:48:07;;;;;;;29.98;28.38;;;;;;;8.04;100.00;101134.78;5078691;28;20052;-78
2022/04/11 06:50:33;;;;;;;30.15;28.45;;;;;;;7.94;100.00;101136.84;5079934;28;20044;-77
2022/04/11 06:53:01;;;;;;;29.42;27.90;;;;;;;7.02;100.00;101138.59;5087212;28;20500;-78
2022/04/11 06:55:28;;;;;;;26.50;25.10;;;;;;;6.60;100.00;101137.94;5079820;28;20040;-79
2022/04/11 06:57:55;;;;;;;26.15;24.75;;;;;;;7.73;100.00;101142.78;5088311;28;20419;-78
2022/04/11 07:00:22;;;;;;;30.80;29.10;;;;;;;8.30;100.00;101141.50;5084755;28;20048;-78
2022/04/11 07:02:49;;;;;;;29.40;27.80;;;;;;;8.82;100.00;101137.97;5081288;28;20101;-80
2022/04/11 07:05:19;;;;;;;27.30;25.80;;;;;;;9.01;100.00;101139.22;5085376;28;20474;-79
2022/04/11 07:07:46;;;;;;;32.10;30.40;;;;;;;8.69;100.00;101146.56;5079753;28;20047;-79
2022/04/11 07:10:12;;;;;;;27.55;25.95;;;;;;;8.53;100.00;101151.22;5088642;28;20109;-79
2022/04/11 07:12:39;;;;;;;27.27;25.88;;;;;;;8.69;100.00;101151.88;5079792;28;20040;-79
2022/04/11 07:15:07;;;;;;;29.70;28.15;;;;;;;9.89;100.00;101155.03;5088850;28;20554;-79
2022/04/11 07:17:34;;;;;;;30.48;28.88;;;;;;;10.23;100.00;101154.31;5084442;28;20152;-80
2022/04/11 07:20:01;;;;;;;28.85;27.25;;;;;;;9.57;100.00;101155.38;5079979;28;20585;-80
2022/04/11 07:22:30;;;;;;;29.13;27.58;;;;;;;8.08;100.00;101164.34;5089192;28;20052;-79
2022/04/11 07:24:56;;;;;;;30.50;28.98;;;;;;;7.68;100.00;101162.84;5093990;28;20052;-79
2022/04/11 07:27:23;;;;;;;28.40;27.00;;;;;;;7.89;100.00;101164.84;5086106;28;20519;-80
2022/04/11 07:29:50;;;;;;;26.13;24.83;;;;;;;8.29;100.00;101170.78;5085418;28;20093;-79
2022/04/11 07:32:16;;;;;;;28.50;27.00;;;;;;;7.23;100.00;101161.78;5088749;28;20041;-79
2022/04/11 07:34:43;;;;;;;31.13;29.52;;;;;;;9.00;100.00;101172.03;5085914;28;20457;-78
2022/04/11 07:37:11;;;;;;;27.83;26.33;;;;;;;8.93;100.00;101171.13;5091414;28;20098;-80
2022/04/11 07:39:39;;;;;;;27.58;26.17;;;;;;;9.16;100.00;101177.13;5090011;28;20496;-78
2022/04/11 07:42:06;;;;;;;28.40;27.00;;;;;;;8.47;100.00;101179.22;5088180;28;20120;-79
2022/04/11 07:44:33;;;;;;;27.50;26.05;;;;;;;9.79;100.00;101179.25;5085247;28;20117;-80
2022/04/11 07:47:00;;;;;;;25.90;24.63;;;;;;;8.62;100.00;101180.09;5089925;28;20105;-79
2022/04/11 07:49:27;;;;;;;27.77;26.38;;;;;;;9.29;100.00;101187.09;5090957;28;20052;-79
2022/04/11 07:51:53;;;;;;;28.10;26.58;;;;;;;8.37;100.00;101190.03;5087415;28;20051;-80
2022/04/11 07:54:20;;;;;;;27.05;25.65;;;;;;;9.66;100.00;101187.91;5093123;28;20048;-78
2022/04/11 07:56:48;;;;;;;27.55;26.10;;;;;;;8.63;100.00;101186.22;5083696;28;20045;-79
2022/04/11 07:59:15;;;;;;;28.38;26.88;;;;;;;8.56;100.00;101187.91;5085242;28;20055;-80
2022/04/11 08:01:42;;;;;;;26.25;24.95;;;;;;;7.92;100.00;101183.00;5090639;28;20143;-78
2022/04/11 08:04:09;;;;;;;24.65;23.35;;;;;;;8.13;100.00;101195.56;5081107;28;20044;-78
2022/04/11 08:06:36;;;;;;;25.58;24.27;;;;;;;7.75;100.00;101195.53;5092485;28;20040;-79
2022/04/11 08:09:03;;;;;;;25.58;24.27;;;;;;;8.39;100.00;101196.03;5085642;28;20048;-80
2022/04/11 08:11:30;;;;;;;25.33;24.10;;;;;;;8.78;100.00;101189.69;5089802;28;20460;-79
2022/04/11 08:13:58;;;;;;;27.27;25.98;;;;;;;8.93;100.00;101192.34;5088233;28;20513;-79
2022/04/11 08:16:25;;;;;;;29.80;28.40;;;;;;;8.27;100.00;101198.25;5088644;28;20048;-79
2022/04/11 08:18:52;;;;;;;27.80;26.50;;;;;;;8.60;100.00;101191.88;5088534;28;20105;-79
2022/04/11 08:21:19;;;;;;;27.23;25.83;;;;;;;8.67;100.00;101200.72;5087891;28;20427;-79
2022/04/11 08:23:46;;;;;;;30.35;28.85;;;;;;;9.42;100.00;101199.66;5090189;28;20052;-79
2022/04/11 08:26:12;;;;;;;27.58;26.35;;;;;;;9.40;100.00;101199.03;5091078;28;20466;-78
2022/04/11 08:28:40;;;;;;;28.35;27.05;;;;;;;9.18;100.00;101196.31;5084584;28;20044;-79
2022/04/11 08:31:08;;;;;;;29.63;28.13;;;;;;;8.23;100.00;101202.25;5084764;28;20036;-79
2022/04/11 08:34:08;;;;;;;29.23;27.73;;;;;;;8.31;100.00;101208.47;5081892;28;20129;-79
2022/04/11 08:36:35;;;;;;;27.20;25.90;;;;;;;8.91;100.00;101196.97;5056027;28;20462;-80
2022/04/11 08:39:01;;;;;;;28.25;26.95;;;;;;;9.68;100.00;101201.78;5086174;28;20495;-79
2022/04/11 08:41:36;;;;;;;29.77;28.33;;;;;;;9.28;100.00;101195.22;5075316;28;20056;-78
2022/04/11 08:44:05;;;;;;;27.48;26.08;;;;;;;9.22;100.00;101211.84;5063197;28;20041;-79
2022/04/11 08:46:35;;;;;;;27.23;25.92;;;;;;;9.03;100.00;101211.41;5067816;28;20130;-79
2022/04/11 08:49:02;;;;;;;27.65;26.30;;;;;;;8.68;100.00;101211.16;5058492;28;20049;-80
2022/04/11 08:51:32;;;;;;;27.52;26.13;;;;;;;9.30;100.00;101217.06;5067743;28;20052;-78
2022/04/11 08:54:00;;;;;;;27.95;26.50;;;;;;;9.37;100.00;101208.16;5066343;28;20044;-80
2022/04/11 08:56:27;;;;;;;28.77;27.38;;;;;;;8.64;100.00;101223.09;5061501;28;20138;-79
2022/04/11 08:58:54;;;;;;;29.00;27.50;;;;;;;8.94;100.00;101218.63;5064140;28;20044;-79
2022/04/11 09:01:21;;;;;;;26.65;25.35;;;;;;;10.01;100.00;101211.91;5069385;28;20052;-79
2022/04/11 09:03:50;;;;;;;28.90;27.40;;;;;;;10.25;100.00;101218.66;5060876;28;20068;-79
2022/04/11 09:06:18;;;;;;;28.90;27.50;;;;;;;9.40;100.00;101213.09;5059746;28;20051;-78
2022/04/11 09:08:51;;;;;;;27.10;25.80;;;;;;;10.66;100.00;101223.28;5068838;28;20432;-79
2022/04/11 09:11:28;;;;;;;29.17;27.67;;;;;;;9.27;100.00;101215.59;5064728;28;20049;-79
2022/04/11 09:13:55;;;;;;;29.92;28.33;;;;;;;9.35;100.00;101228.75;5066148;28;20097;-78
2022/04/11 09:16:22;;;;;;;28.90;27.50;;;;;;;10.17;100.00;101226.75;5066432;28;20044;-79
2022/04/11 09:18:52;;;;;;;29.65;28.15;;;;;;;9.96;100.00;101224.94;5068269;28;20048;-79
2022/04/11 09:21:20;;;;;;;31.17;29.38;;;;;;;9.16;100.00;101221.34;5071964;28;20041;-79
2022/04/11 09:23:48;;;;;;;30.05;28.45;;;;;;;9.48;100.00;101229.91;5060084;28;20508;-79
2022/04/11 09:26:19;;;;;;;28.42;26.92;;;;;;;10.73;100.00;101230.28;5065343;28;20119;-79
2022/04/11 09:29:00;;;;;;;29.70;28.20;;;;;;;10.55;100.00;101227.28;5061870;28;20114;-79
2022/04/11 09:31:27;;;;;;;27.85;26.35;;;;;;;10.42;100.00;101233.34;5063729;28;20139;-79
2022/04/11 09:33:56;;;;;;;31.60;29.88;;;;;;;9.48;100.00;101233.38;5065309;28;20041;-79
2022/04/11 09:36:23;;;;;;;32.00;30.30;;;;;;;9.77;100.00;101223.69;5068614;28;20045;-79
2022/04/11 09:38:59;;;;;;;29.70;28.30;;;;;;;10.42;100.00;101227.19;5066193;28;20071;-80
2022/04/11 09:41:29;;;;;;;31.73;30.02;;;;;;;9.77;100.00;101219.25;5064069;28;20045;-79
2022/04/11 09:43:57;;;;;;;29.42;28.02;;;;;;;10.26;100.00;101230.94;5085856;28;20065;-79
2022/04/11 09:46:24;;;;;;;35.13;33.03;;;;;;;11.05;100.00;101236.00;5080065;28;20044;-78
2022/04/11 09:48:54;;;;;;;35.30;33.08;;;;;;;10.94;100.00;101217.94;5079612;28;20040;-78
2022/04/11 09:51:22;;;;;;;33.83;32.13;;;;;;;9.38;100.00;101222.28;5092064;28;20131;-78
2022/04/11 09:53:49;;;;;;;33.70;32.10;;;;;;;11.09;100.00;101231.13;5083160;28;20044;-79
2022/04/11 09:56:17;;;;;;;29.50;28.00;;;;;;;10.85;100.00;101213.81;5085831;28;20054;-78
2022/04/11 09:58:44;;;;;;;32.30;30.67;;;;;;;10.67;100.00;101224.94;5079408;28;20048;-81
2022/04/11 10:01:11;;;;;;;29.92;28.50;;;;;;;11.36;100.00;101219.56;5085187;28;20435;-78
2022/04/11 10:03:39;;;;;;;30.33;28.83;;;;;;;11.12;100.00;101220.09;5083882;28;20518;-78
2022/04/11 10:06:07;;;;;;;30.17;28.60;;;;;;;10.16;100.00;101219.78;5078266;28;20048;-80
2022/04/11 10:08:36;;;;;;;32.58;30.67;;;;;;;10.65;100.00;101222.47;5078916;28;20101;-78
2022/04/11 10:11:04;;;;;;;32.15;30.38;;;;;;;10.49;100.00;101218.25;5083686;28;20109;-78
2022/04/11 10:13:31;;;;;;;32.00;30.30;;;;;;;10.55;100.00;101222.78;5073603;28;20051;-78
2022/04/11 10:16:00;;;;;;;31.48;29.73;;;;;;;10.02;100.00;101214.38;5084142;28;20527;-78
2022/04/11 10:18:28;;;;;;;28.23;26.83;;;;;;;10.28;100.00;101212.97;5077972;28;20479;-79
2022/04/11 10:20:59;;;;;;;28.48;27.05;;;;;;;11.10;100.00;101220.28;5077807;28;20056;-79
2022/04/11 10:23:31;;;;;;;29.42;28.13;;;;;;;11.74;100.00;101211.13;5083640;28;20056;-79
2022/04/11 10:26:03;;;;;;;30.15;28.75;;;;;;;11.47;100.00;101202.25;5083442;28;20131;-79
2022/04/11 10:28:31;;;;;;;28.83;27.52;;;;;;;10.99;100.00;101208.38;5072208;28;20072;-78
2022/04/11 10:31:07;;;;;;;30.70;29.30;;;;;;;11.49;100.00;101202.03;5083558;28;20048;-79
2022/04/11 10:33:45;;;;;;;28.85;27.55;;;;;;;11.40;100.00;101190.75;5080641;28;20054;-78
2022/04/11 10:36:34;;;;;;;30.92;29.40;;;;;;;12.13;100.00;101189.09;5082179;28;20060;-78
2022/04/11 10:39:25;;;;;;;31.33;29.73;;;;;;;12.11;100.00;101188.47;5078975;28;20493;-79
2022/04/11 10:42:10;;;;;;;29.15;27.50;;;;;;;12.21;100.00;101180.06;5080114;28;20124;-79
2022/04/11 10:44:39;;;;;;;29.85;28.42;;;;;;;11.59;100.00;101184.69;5074029;28;20053;-78
2022/04/11 10:47:29;;;;;;;31.17;29.77;;;;;;;11.46;100.00;101177.44;5079284;28;20481;-79
2022/04/11 10:50:25;;;;;;;30.75;29.33;;;;;;;11.81;100.00;101182.66;5081438;28;20052;-78
2022/04/11 10:52:54;;;;;;;30.88;29.38;;;;;;;10.80;100.00;101173.69;5083558;28;20105;-79
2022/04/11 10:55:23;;;;;;;32.95;31.35;;;;;;;10.89;100.00;101176.03;5080583;28;20051;-79
2022/04/11 10:57:54;;;;;;;31.00;29.50;;;;;;;11.28;100.00;101174.53;5084654;28;20076;-80
2022/04/11 11:00:22;;;;;;;29.85;28.42;;;;;;;11.05;100.00;101187.34;5085060;28;20064;-78
2022/04/11 11:03:08;;;;;;;31.52;30.02;;;;;;;11.52;100.00;101169.69;5086431;28;20067;-79
2022/04/11 11:05:38;;;;;;;32.35;30.85;;;;;;;11.45;100.00;101173.16;5088909;28;20079;-78
2022/04/11 11:08:33;;;;;;;31.83;30.23;;;;;;;11.24;100.00;101183.94;5086128;28;20052;-79
2022/04/11 11:11:02;;;;;;;30.30;28.90;;;;;;;11.62;100.00;101180.78;5080413;28;20044;-79
2022/04/11 11:13:38;;;;;;;31.60;30.13;;;;;;;12.01;100.00;101184.53;5081743;28;20076;-79
2022/04/11 11:16:26;;;;;;;31.30;29.65;;;;;;;12.27;100.00;101192.53;5084201;28;20047;-79